»·PEaware :: N727JR KSAN-KBUR

N727JR :: KSAN-KBUR

FLIGHT INFORMATION

Flight Status: Arrived
Operator: Privately registered:
United States
More flights under this callsign
Pilot: Salim S. (29683)
Aircraft: Diamond DA-62
(DA62)
More flights by this aircraft type
Origin: KSAN San Diego Intl-Lindbergh
United States
Destination: KBUR Bob Hope-Burbank
United States
More flights between these airports :: More routes between these airports
Route: OCN V23 POPPR SMO125R SMO SMO311R SILEX
File this flight plan on PilotEdge
Remarks: SANP13
Altitude:
(Current/Filed)
6,000ft
Speed:
(Current/Filed)
150kts
Departed: 20-Oct-20 10:44 AM
Arrived: 20-Oct-20 11:40 AM
Distance/Time
Traveled:
106nm/0:56
Distance/Time
To Go:
Arrived

Flight Plot

Page will automatically refresh every two minutes.


Map Options




Map Legend


Flown Route
Filed Route
Departure Airport
Arrival Airport
Navaid (VOR, NDB)
Fix

Horizontal Profiles

Position Reports

Time Latitude Longitude Heading Altitude Ground
Speed
20-Oct-20 10:33 32.733254 -117.177731 17 21ft 0kts
20-Oct-20 10:34 32.733254 -117.177731 17 21ft 0kts
20-Oct-20 10:35 32.733254 -117.177731 17 21ft 0kts
20-Oct-20 10:36 32.733254 -117.177731 17 21ft 0kts
20-Oct-20 10:37 32.733254 -117.177731 17 21ft 0kts
20-Oct-20 10:38 32.733254 -117.177731 17 21ft 0kts
20-Oct-20 10:39 32.733254 -117.177731 17 21ft 0kts
20-Oct-20 10:40 32.733271 -117.177798 211 21ft 0kts
20-Oct-20 10:41 32.733132 -117.177840 184 21ft 1kts
20-Oct-20 10:41 32.731872 -117.176486 197 21ft 12kts
20-Oct-20 10:43 32.730968 -117.175516 149 21ft 0kts
20-Oct-20 10:43 32.730791 -117.178205 284 21ft 60kts
20-Oct-20 10:44 32.740068 -117.206270 326 860ft 105kts
20-Oct-20 10:45 32.763018 -117.227784 318 2016ft 111kts
20-Oct-20 10:46 32.793919 -117.254642 320 2689ft 125kts
20-Oct-20 10:47 32.816115 -117.274780 320 4203ft 96kts
20-Oct-20 10:48 32.839917 -117.296216 320 5198ft 118kts
20-Oct-20 10:49 32.871467 -117.313660 350 5958ft 146kts
20-Oct-20 10:50 32.916338 -117.325106 345 5954ft 176kts
20-Oct-20 10:51 32.963392 -117.338744 345 5949ft 172kts
20-Oct-20 10:52 33.009785 -117.352737 344 5947ft 172kts
20-Oct-20 10:53 33.056294 -117.366173 344 5943ft 172kts
20-Oct-20 10:54 33.102979 -117.379664 344 5953ft 171kts
20-Oct-20 10:55 33.147126 -117.392462 347 6012ft 166kts
20-Oct-20 10:56 33.191684 -117.405333 346 6009ft 164kts
20-Oct-20 10:57 33.236018 -117.417954 346 6005ft 164kts
20-Oct-20 10:58 33.270169 -117.453471 313 5979ft 165kts
20-Oct-20 10:59 33.302775 -117.492051 315 5982ft 164kts
20-Oct-20 11:00 33.330173 -117.534942 290 5983ft 166kts
20-Oct-20 11:01 33.355391 -117.580383 310 5986ft 165kts
20-Oct-20 11:02 33.384855 -117.622643 310 5984ft 165kts
20-Oct-20 11:03 33.413987 -117.664795 309 6023ft 163kts
20-Oct-20 11:04 33.443049 -117.706847 309 6027ft 164kts
20-Oct-20 11:05 33.472225 -117.749157 309 6024ft 165kts
20-Oct-20 11:06 33.501472 -117.791604 309 6019ft 165kts
20-Oct-20 11:07 33.530684 -117.834009 309 6017ft 165kts
20-Oct-20 11:08 33.559892 -117.876523 309 6013ft 165kts
20-Oct-20 11:09 33.589080 -117.919020 310 6010ft 165kts
20-Oct-20 11:10 33.618434 -117.961792 310 6006ft 166kts
20-Oct-20 11:11 33.647834 -118.004732 310 6010ft 167kts
20-Oct-20 11:12 33.677515 -118.048069 306 6008ft 168kts
20-Oct-20 11:13 33.707172 -118.091506 306 6003ft 167kts
20-Oct-20 11:14 33.736840 -118.134967 310 6000ft 168kts
20-Oct-20 11:15 33.766460 -118.178375 310 5997ft 167kts
20-Oct-20 11:16 33.795911 -118.221658 310 5992ft 166kts
20-Oct-20 11:17 33.825050 -118.264480 309 5991ft 164kts
20-Oct-20 11:18 33.855733 -118.305090 322 5988ft 164kts
20-Oct-20 11:19 33.891524 -118.339202 320 5989ft 164kts
20-Oct-20 11:20 33.926622 -118.374113 320 5988ft 164kts
20-Oct-20 11:21 33.963752 -118.410924 319 4863ft 188kts
20-Oct-20 11:22 34.000294 -118.447644 321 3974ft 152kts
20-Oct-20 11:23 34.032371 -118.476628 325 3974ft 140kts
20-Oct-20 11:24 34.064307 -118.504211 325 3971ft 142kts
20-Oct-20 11:25 34.096423 -118.532145 325 3970ft 143kts
20-Oct-20 11:26 34.128468 -118.560012 325 4023ft 142kts
20-Oct-20 11:27 34.160544 -118.587953 325 4019ft 142kts
20-Oct-20 11:28 34.192415 -118.615670 328 4015ft 141kts
20-Oct-20 11:29 34.204183 -118.657543 270 4013ft 130kts
20-Oct-20 11:30 34.188778 -118.676795 115 4000ft 123kts
20-Oct-20 11:31 34.197878 -118.639607 57 3896ft 126kts
20-Oct-20 11:32 34.200912 -118.595883 88 3502ft 140kts
20-Oct-20 11:33 34.200474 -118.549364 89 3126ft 115kts
20-Oct-20 11:34 34.199992 -118.514090 88 2965ft 104kts
20-Oct-20 11:35 34.199503 -118.476708 89 2472ft 116kts
20-Oct-20 11:36 34.198967 -118.437409 89 1862ft 117kts
20-Oct-20 11:37 34.198372 -118.398813 89 1259ft 107kts
20-Oct-20 11:38 34.197911 -118.367180 90 739ft 89kts
20-Oct-20 11:39 34.198090 -118.352342 39 697ft 20kts
20-Oct-20 11:40 34.198798 -118.356615 270 711ft 22kts
20-Oct-20 11:41 34.201262 -118.359517 350 726ft 11kts
20-Oct-20 11:42 34.202203 -118.359442 255 730ft 4kts
20-Oct-20 11:43 34.202195 -118.359481 255 730ft 0kts
20-Oct-20 11:44 34.202195 -118.359481 255 730ft 0kts
20-Oct-20 11:45 34.202195 -118.359481 255 730ft 0kts

Navigation Log

Ident Type
Flight plan parsing failed, navigation log unavailable